createdAt,value
2017-07-02T00:01:23.748Z,54.40
2017-07-02T00:03:53.540Z,55.13
2017-07-02T00:06:22.233Z,58.87
2017-07-02T00:08:51.127Z,60.80
2017-07-02T00:11:20.073Z,59.23
2017-07-02T00:13:49.722Z,60.73
2017-07-02T00:16:18.613Z,57.87
2017-07-02T00:31:35.401Z,56.87
2017-07-02T00:34:04.101Z,56.53
2017-07-02T00:36:32.901Z,58.93
2017-07-02T00:39:01.850Z,59.70
2017-07-02T00:41:31.181Z,59.43
2017-07-02T00:43:59.937Z,60.87
2017-07-02T00:46:28.881Z,59.93
2017-07-02T00:48:57.628Z,61.00
2017-07-02T00:51:25.821Z,61.83
2017-07-02T00:53:54.638Z,61.20
2017-07-02T00:56:22.742Z,62.67
2017-07-02T00:58:51.386Z,57.20
2017-07-02T01:01:20.321Z,59.33
2017-07-02T01:03:48.384Z,59.67
2017-07-02T01:06:17.137Z,53.63
2017-07-02T01:08:46.035Z,54.10
2017-07-02T01:11:14.730Z,52.67
2017-07-02T01:13:43.673Z,54.73
2017-07-02T01:16:13.334Z,53.73
2017-07-02T01:18:42.123Z,52.90
2017-07-02T01:21:10.809Z,52.87
2017-07-02T01:23:39.520Z,53.60
2017-07-02T01:26:08.119Z,52.00
2017-07-02T01:28:36.868Z,51.27
2017-07-02T01:31:05.761Z,51.93
2017-07-02T01:33:34.609Z,53.10
2017-07-02T01:36:04.045Z,51.40
2017-07-02T01:38:32.941Z,51.00
2017-07-02T01:41:01.134Z,49.13
2017-07-02T01:43:29.802Z,50.20
2017-07-02T01:45:58.113Z,51.60
2017-07-02T01:48:26.985Z,51.97
2017-07-02T01:50:55.790Z,51.70
2017-07-02T01:53:24.432Z,51.77
2017-07-02T01:55:53.233Z,51.60
2017-07-02T01:58:21.929Z,52.47
2017-07-02T02:01:02.420Z,51.10
2017-07-02T02:03:31.909Z,50.40
2017-07-02T02:06:00.711Z,54.17
2017-07-02T02:08:29.470Z,53.27
2017-07-02T02:10:57.680Z,52.60
2017-07-02T02:13:26.558Z,50.37
2017-07-02T02:15:55.313Z,51.40
2017-07-02T02:18:24.028Z,51.13
2017-07-02T02:20:52.806Z,51.87
2017-07-02T02:23:21.593Z,53.10
2017-07-02T02:25:50.401Z,53.67
2017-07-02T02:28:19.245Z,51.37
2017-07-02T02:30:48.885Z,51.73
2017-07-02T02:33:17.574Z,49.67
2017-07-02T02:35:46.377Z,51.80
2017-07-02T02:38:15.369Z,50.73
2017-07-02T02:40:43.585Z,46.97
2017-07-02T02:43:12.221Z,49.40
2017-07-02T02:45:41.113Z,48.20
2017-07-02T02:48:09.302Z,47.27
2017-07-02T02:50:37.978Z,46.83
2017-07-02T02:53:06.301Z,50.37
2017-07-02T02:55:34.885Z,47.43
2017-07-02T02:58:03.057Z,48.47
2017-07-02T03:00:31.397Z,47.43
2017-07-02T03:03:00.077Z,49.53
2017-07-02T03:05:28.781Z,49.23
2017-07-02T03:07:57.876Z,49.10
2017-07-02T03:10:26.116Z,46.27
2017-07-02T03:12:54.246Z,47.20
2017-07-02T03:15:23.220Z,44.50
2017-07-02T03:17:52.117Z,43.90
2017-07-02T03:20:20.697Z,43.20
2017-07-02T03:22:49.805Z,43.90
2017-07-02T03:25:18.522Z,42.77
2017-07-02T03:27:47.274Z,43.87
2017-07-02T03:30:16.271Z,41.67
2017-07-02T03:32:45.061Z,42.63
2017-07-02T03:35:13.695Z,39.03
2017-07-02T03:37:43.457Z,41.07
2017-07-02T03:40:12.305Z,37.80
2017-07-02T03:42:41.740Z,39.63
2017-07-02T03:45:10.635Z,38.20
2017-07-02T03:47:39.433Z,39.30
2017-07-02T03:50:08.383Z,37.43
2017-07-02T03:52:38.025Z,38.33
2017-07-02T03:55:06.709Z,36.73
2017-07-02T03:57:35.472Z,36.97
2017-07-02T04:00:03.788Z,37.87
2017-07-02T04:02:32.021Z,39.17
2017-07-02T04:05:01.513Z,37.63
2017-07-02T04:07:30.348Z,38.87
2017-07-02T04:09:59.361Z,37.40
2017-07-02T04:12:27.533Z,37.03
2017-07-02T04:14:56.401Z,37.10
2017-07-02T04:17:25.104Z,38.20
2017-07-02T04:19:53.801Z,37.87
2017-07-02T04:22:23.523Z,37.03
2017-07-02T04:24:52.401Z,40.63
2017-07-02T04:27:21.182Z,39.07
2017-07-02T04:29:50.077Z,39.07
2017-07-02T04:32:18.729Z,41.27
2017-07-02T04:34:48.175Z,39.80
2017-07-02T04:37:17.056Z,43.80
2017-07-02T04:39:45.861Z,41.33
2017-07-02T04:42:14.654Z,40.73
2017-07-02T04:44:43.446Z,42.00
2017-07-02T04:47:12.053Z,41.13
2017-07-02T04:49:40.801Z,42.40
2017-07-02T04:52:09.697Z,42.03
2017-07-02T04:54:38.597Z,41.73
2017-07-02T04:57:07.442Z,41.50
2017-07-02T04:59:36.985Z,41.50
2017-07-02T05:02:05.882Z,40.73
2017-07-02T05:04:34.678Z,40.77
2017-07-02T05:07:02.970Z,39.70
2017-07-02T05:09:31.577Z,40.50
2017-07-02T05:12:00.330Z,38.10
2017-07-02T05:14:29.429Z,35.90
2017-07-02T05:16:58.382Z,39.70
2017-07-02T05:19:27.815Z,35.17
2017-07-02T05:21:56.705Z,35.08
2017-07-02T05:24:25.504Z,37.60
2017-07-02T05:26:54.453Z,34.63
2017-07-02T05:29:23.892Z,36.93
2017-07-02T05:31:52.696Z,38.80
2017-07-02T05:34:20.853Z,37.17
2017-07-02T05:36:49.593Z,34.77
2017-07-02T05:39:18.233Z,35.40
2017-07-02T05:41:47.090Z,34.60
2017-07-02T05:44:15.326Z,34.70
2017-07-02T05:46:43.981Z,34.60
2017-07-02T05:49:12.789Z,31.40
2017-07-02T05:51:41.872Z,33.05
2017-07-02T05:54:16.893Z,29.02
2017-07-02T05:56:45.668Z,28.65
2017-07-02T05:59:13.873Z,31.60
2017-07-02T06:01:42.678Z,29.55
2017-07-02T06:04:11.573Z,29.15
2017-07-02T06:06:40.461Z,29.17
2017-07-02T06:09:09.205Z,29.20
2017-07-02T06:11:38.751Z,28.55
2017-07-02T06:14:07.446Z,29.27
2017-07-02T06:16:36.237Z,26.58
2017-07-02T06:19:05.128Z,29.40
2017-07-02T06:21:33.705Z,26.30
2017-07-02T06:24:02.381Z,24.63
2017-07-02T06:26:31.285Z,23.08
2017-07-02T06:29:00.177Z,21.80
2017-07-02T06:31:29.176Z,18.90
2017-07-02T06:33:57.501Z,21.98
2017-07-02T06:36:26.178Z,19.98
2017-07-02T06:38:55.041Z,19.52
2017-07-02T06:41:23.913Z,18.62
2017-07-02T06:43:52.717Z,17.67
2017-07-02T06:46:21.561Z,18.95
2017-07-02T06:48:51.146Z,18.35
2017-07-02T06:51:19.905Z,16.65
2017-07-02T06:53:48.113Z,16.77
2017-07-02T06:56:16.462Z,16.00
2017-07-02T06:58:44.681Z,15.82
2017-07-02T07:01:13.256Z,16.15
2017-07-02T07:03:42.100Z,16.90
2017-07-02T07:06:11.005Z,16.98
2017-07-02T07:08:39.794Z,16.48
2017-07-02T07:11:08.789Z,15.38
2017-07-02T07:13:37.637Z,16.00
2017-07-02T07:16:06.973Z,14.82
2017-07-02T07:18:35.872Z,14.55
2017-07-02T07:21:04.005Z,14.95
2017-07-02T07:23:33.558Z,15.65
2017-07-02T07:26:02.300Z,15.40
2017-07-02T07:28:31.958Z,15.55
2017-07-02T07:31:00.946Z,15.15
2017-07-02T07:33:30.046Z,13.07
2017-07-02T07:35:58.785Z,14.70
2017-07-02T07:38:28.231Z,15.15
2017-07-02T07:40:57.114Z,16.98
2017-07-02T07:43:25.920Z,17.48
2017-07-02T07:45:54.610Z,19.37
2017-07-02T07:48:23.301Z,21.20
2017-07-02T07:50:51.969Z,18.25
2017-07-02T07:53:20.769Z,17.95
2017-07-02T07:55:49.861Z,21.55
2017-07-02T07:58:18.849Z,26.83
2017-07-02T08:00:47.849Z,29.70
2017-07-02T08:03:16.853Z,32.55
2017-07-02T08:05:45.845Z,34.25
2017-07-02T08:08:14.830Z,32.10
2017-07-02T08:10:43.938Z,33.13
2017-07-02T08:13:12.885Z,34.73
2017-07-02T08:15:43.261Z,34.97
2017-07-02T08:18:12.165Z,33.70
2017-07-02T08:20:40.747Z,36.90
2017-07-02T08:23:09.387Z,37.13
2017-07-02T08:25:38.871Z,37.50
2017-07-02T08:28:06.963Z,36.97
2017-07-02T08:30:36.372Z,35.63
2017-07-02T08:33:06.009Z,33.90
2017-07-02T08:35:34.603Z,33.10
2017-07-02T08:38:03.326Z,34.60
2017-07-02T08:40:32.467Z,31.70
2017-07-02T08:43:01.271Z,33.70
2017-07-02T08:45:30.267Z,35.97
2017-07-02T08:47:59.307Z,34.37
2017-07-02T08:50:27.436Z,34.63
2017-07-02T08:52:56.194Z,34.47
2017-07-02T08:55:25.675Z,33.47
2017-07-02T08:57:54.388Z,35.20
2017-07-02T09:00:22.563Z,33.17
2017-07-02T09:02:52.179Z,35.47
2017-07-02T09:05:20.939Z,39.03
2017-07-02T09:07:49.783Z,37.73
2017-07-02T09:10:18.823Z,36.83
2017-07-02T09:12:47.327Z,39.17
2017-07-02T09:15:15.499Z,37.43
2017-07-02T09:17:45.018Z,38.13
2017-07-02T09:20:13.167Z,36.97
2017-07-02T09:22:41.707Z,39.70
2017-07-02T09:25:10.598Z,38.47
2017-07-02T09:27:39.454Z,38.40
2017-07-02T09:30:08.800Z,37.30
2017-07-02T09:32:37.748Z,35.37
2017-07-02T09:35:07.151Z,37.37
2017-07-02T09:37:36.943Z,37.43
2017-07-02T09:40:05.839Z,39.07
2017-07-02T09:42:34.003Z,40.03
2017-07-02T09:45:02.742Z,36.40
2017-07-02T09:47:31.631Z,37.20
2017-07-02T09:50:00.582Z,37.70
2017-07-02T09:52:28.722Z,37.20
2017-07-02T09:54:57.043Z,37.33
2017-07-02T09:57:25.883Z,36.90
2017-07-02T09:59:54.691Z,34.70
2017-07-02T10:02:23.335Z,37.23
2017-07-02T10:04:52.911Z,36.70
2017-07-02T10:07:21.186Z,37.43
2017-07-02T10:09:50.103Z,37.27
2017-07-02T10:12:18.303Z,37.50
2017-07-02T10:14:46.858Z,37.10
2017-07-02T10:17:16.555Z,37.90
2017-07-02T10:19:45.125Z,37.27
2017-07-02T10:22:13.683Z,34.13
2017-07-02T10:24:42.643Z,33.73
2017-07-02T10:27:11.939Z,34.00
2017-07-02T10:29:41.479Z,34.50
2017-07-02T10:32:09.723Z,33.80
2017-07-02T10:34:39.023Z,32.70
2017-07-02T10:37:07.339Z,33.43
2017-07-02T10:39:36.210Z,31.90
2017-07-02T10:42:05.023Z,33.83
2017-07-02T10:44:33.908Z,33.87
2017-07-02T10:47:02.577Z,32.03
2017-07-02T10:49:31.155Z,32.67
2017-07-02T10:52:00.491Z,33.10
2017-07-02T10:54:29.442Z,32.50
2017-07-02T10:56:58.747Z,32.53
2017-07-02T10:59:28.307Z,32.83
2017-07-02T11:01:56.535Z,33.30
2017-07-02T11:04:25.875Z,33.50
2017-07-02T11:06:54.523Z,34.50
2017-07-02T11:22:21.807Z,34.57
2017-07-02T11:24:49.898Z,37.27
2017-07-02T11:27:19.655Z,38.00
2017-07-02T11:29:49.091Z,40.30
2017-07-02T11:32:24.275Z,40.87
2017-07-02T11:34:52.371Z,40.90
2017-07-02T11:37:21.920Z,43.77
2017-07-02T11:39:50.508Z,45.33
2017-07-02T11:42:19.575Z,42.53
2017-07-02T11:44:48.279Z,43.70
2017-07-02T11:47:16.827Z,46.30
2017-07-02T11:49:46.528Z,48.43
2017-07-02T11:52:15.283Z,47.63
2017-07-02T11:54:43.914Z,50.70
2017-07-02T11:57:13.523Z,50.87
2017-07-02T11:59:42.906Z,50.17
2017-07-02T12:02:11.750Z,50.30
2017-07-02T12:04:40.415Z,51.20
2017-07-02T12:07:09.995Z,54.27
2017-07-02T12:09:38.496Z,54.50
2017-07-02T12:12:08.039Z,55.00
2017-07-02T12:14:36.847Z,58.57
2017-07-02T12:17:05.420Z,62.13
2017-07-02T12:19:34.166Z,59.00
2017-07-02T12:22:03.579Z,61.73
2017-07-02T12:24:31.711Z,60.17
2017-07-02T12:27:00.139Z,63.20
2017-07-02T12:29:29.715Z,63.80
2017-07-02T12:31:57.983Z,64.20
2017-07-02T12:34:26.238Z,67.30
2017-07-02T12:36:55.011Z,66.90
2017-07-02T12:39:23.768Z,64.50
2017-07-02T12:41:53.191Z,67.23
2017-07-02T12:44:22.187Z,68.20
2017-07-02T12:46:51.183Z,69.20
2017-07-02T12:49:20.244Z,69.20
2017-07-02T12:51:49.089Z,69.63
2017-07-02T12:54:17.975Z,69.30
2017-07-02T12:56:46.656Z,65.93
2017-07-02T12:59:15.315Z,66.20
2017-07-02T13:01:43.439Z,63.30
2017-07-02T13:04:12.099Z,64.00
2017-07-02T13:06:40.809Z,65.00
2017-07-02T13:09:09.567Z,62.70
2017-07-02T13:11:37.839Z,61.40
2017-07-02T13:14:07.376Z,65.57
2017-07-02T13:16:36.179Z,65.50
2017-07-02T13:19:04.827Z,64.73
2017-07-02T13:21:33.402Z,64.60
2017-07-02T13:24:02.799Z,64.47
2017-07-02T13:26:32.530Z,61.20
2017-07-02T13:29:00.647Z,61.83
2017-07-02T13:31:29.290Z,59.40
2017-07-02T13:33:58.183Z,61.70
2017-07-02T13:36:26.887Z,62.53
2017-07-02T13:38:54.963Z,62.03
2017-07-02T13:41:23.859Z,63.93
2017-07-02T13:43:52.627Z,63.27
2017-07-02T13:46:21.194Z,66.93
2017-07-02T13:48:50.923Z,64.50
2017-07-02T13:51:18.999Z,60.70
2017-07-02T13:53:47.579Z,59.73
2017-07-02T13:56:17.107Z,59.63
2017-07-02T13:58:45.859Z,59.83
2017-07-02T14:01:15.255Z,59.83
2017-07-02T14:03:44.848Z,61.90
2017-07-02T14:06:12.920Z,60.80
2017-07-02T14:08:41.067Z,62.07
2017-07-02T14:11:09.718Z,59.87
2017-07-02T14:13:38.291Z,61.63
2017-07-02T14:16:07.631Z,55.90
2017-07-02T14:18:36.486Z,60.17
2017-07-02T14:21:05.887Z,60.80
2017-07-02T14:23:34.015Z,60.80
2017-07-02T14:26:02.986Z,61.67
2017-07-02T14:28:31.535Z,61.60
2017-07-02T14:31:01.097Z,62.00
2017-07-02T14:33:29.847Z,59.37
2017-07-02T14:35:59.355Z,58.60
2017-07-02T14:38:28.168Z,71.17
2017-07-02T14:40:56.883Z,61.03
2017-07-02T14:43:25.543Z,61.80
2017-07-02T14:45:54.210Z,59.67
2017-07-02T14:48:23.099Z,58.87
2017-07-02T14:50:51.909Z,61.97
2017-07-02T14:53:20.028Z,59.77
2017-07-02T14:55:48.946Z,56.17
2017-07-02T14:58:18.387Z,61.03
2017-07-02T15:00:47.031Z,60.70
2017-07-02T15:03:16.447Z,60.97
2017-07-02T15:05:44.615Z,63.70
2017-07-02T15:08:14.020Z,59.50
2017-07-02T15:10:43.495Z,65.83
2017-07-02T15:13:11.663Z,59.40
2017-07-02T15:15:40.437Z,66.70
2017-07-02T15:18:08.676Z,68.60
2017-07-02T15:20:36.855Z,68.40
2017-07-02T15:23:05.418Z,61.17
2017-07-02T15:25:34.214Z,60.20
2017-07-02T15:28:03.515Z,61.80
2017-07-02T15:30:33.155Z,60.90
2017-07-02T15:33:01.842Z,72.53
2017-07-02T15:35:29.959Z,60.07
2017-07-02T15:37:58.724Z,60.13
2017-07-02T15:40:27.371Z,61.80
2017-07-02T15:42:56.947Z,62.10
2017-07-02T15:45:26.005Z,64.80
2017-07-02T15:47:54.991Z,62.93
2017-07-02T15:50:23.540Z,62.67
2017-07-02T15:52:52.895Z,58.50
2017-07-02T15:55:21.665Z,60.10
2017-07-02T15:57:50.323Z,59.83
2017-07-02T16:00:19.515Z,65.40
2017-07-02T16:02:49.312Z,69.13
2017-07-02T16:05:18.155Z,62.87
2017-07-02T16:07:46.705Z,67.40
2017-07-02T16:10:16.403Z,64.47
2017-07-02T16:12:45.138Z,63.47
2017-07-02T16:15:13.591Z,62.20
2017-07-02T16:17:42.959Z,61.57
2017-07-02T16:20:11.679Z,63.30
2017-07-02T16:22:41.239Z,64.70
2017-07-02T16:25:09.852Z,61.47
2017-07-02T16:27:38.563Z,63.53
2017-07-02T16:30:07.962Z,64.57
2017-07-02T16:32:37.796Z,66.70
2017-07-02T16:35:06.603Z,66.57
2017-07-02T16:37:35.156Z,66.37
2017-07-02T16:40:03.407Z,68.30
2017-07-02T16:42:31.910Z,68.30
2017-07-02T16:45:01.451Z,66.70
2017-07-02T16:47:30.175Z,65.13
2017-07-02T16:49:58.739Z,66.50
2017-07-02T16:52:26.867Z,65.70
2017-07-02T16:54:55.143Z,63.53
2017-07-02T16:57:24.607Z,67.43
2017-07-02T16:59:53.239Z,61.87
2017-07-02T17:02:21.451Z,62.43
2017-07-02T17:04:50.559Z,60.23
2017-07-02T17:07:18.719Z,57.50
2017-07-02T17:09:47.575Z,59.03
2017-07-02T17:12:17.021Z,58.57
2017-07-02T17:14:45.669Z,59.80
2017-07-02T17:17:15.151Z,60.97
2017-07-02T17:19:43.759Z,60.30
2017-07-02T17:22:13.103Z,62.23
2017-07-02T17:24:41.347Z,62.77
2017-07-02T17:27:10.744Z,64.67
2017-07-02T17:29:38.919Z,61.97
2017-07-02T17:32:08.543Z,68.10
2017-07-02T17:34:37.246Z,67.60
2017-07-02T17:37:05.794Z,64.87
2017-07-02T17:39:35.492Z,65.43
2017-07-02T17:42:03.991Z,62.27
2017-07-02T17:44:33.532Z,66.00
2017-07-02T17:47:02.195Z,64.53
2017-07-02T17:49:30.488Z,65.70
2017-07-02T17:51:59.232Z,67.50
2017-07-02T17:54:27.447Z,65.43
2017-07-02T17:56:56.019Z,63.63
2017-07-02T17:59:25.255Z,66.50
2017-07-02T18:01:54.040Z,63.63
2017-07-02T18:04:22.766Z,67.97
2017-07-02T18:06:51.375Z,64.07
2017-07-02T18:09:19.675Z,59.40
2017-07-02T18:11:48.379Z,61.23
2017-07-02T18:14:16.988Z,62.97
2017-07-02T18:16:45.759Z,61.20
2017-07-02T18:19:13.951Z,63.27
2017-07-02T18:21:42.545Z,61.03
2017-07-02T18:24:10.786Z,57.63
2017-07-02T18:26:38.897Z,57.30
2017-07-02T18:29:07.617Z,55.80
2017-07-02T18:31:37.104Z,55.07
2017-07-02T18:34:05.715Z,54.87
2017-07-02T18:36:35.007Z,45.67
2017-07-02T18:39:03.363Z,47.10
2017-07-02T18:41:32.259Z,42.40
2017-07-02T18:44:01.105Z,39.80
2017-07-02T18:46:29.770Z,38.00
2017-07-02T18:48:59.242Z,39.03
2017-07-02T18:51:27.984Z,35.63
2017-07-02T18:53:56.752Z,36.67
2017-07-02T18:56:26.288Z,35.23
2017-07-02T18:58:54.907Z,33.67
2017-07-02T19:01:23.199Z,31.27
2017-07-02T19:03:51.879Z,31.90
2017-07-02T19:06:20.424Z,29.60
2017-07-02T19:08:49.275Z,27.23
2017-07-02T19:11:18.675Z,26.77
2017-07-02T19:13:48.267Z,25.37
2017-07-02T19:16:17.260Z,28.70
2017-07-02T19:18:45.759Z,29.97
2017-07-02T19:21:15.306Z,23.13
2017-07-02T19:23:44.047Z,25.90
2017-07-02T19:26:12.690Z,25.57
2017-07-02T19:28:41.335Z,29.97
2017-07-02T19:31:10.819Z,30.80
2017-07-02T19:33:39.427Z,35.30
2017-07-02T19:36:08.874Z,34.10
2017-07-02T19:38:37.722Z,30.33
2017-07-02T19:41:07.083Z,28.40
2017-07-02T19:43:35.709Z,29.90
2017-07-02T19:46:03.948Z,29.07
2017-07-02T19:48:32.511Z,30.87
2017-07-02T19:51:01.159Z,30.00
2017-07-02T19:53:30.679Z,29.47
2017-07-02T19:55:59.253Z,30.77
2017-07-02T19:58:28.653Z,29.60
2017-07-02T20:00:58.379Z,26.60
2017-07-02T20:03:27.084Z,24.57
2017-07-02T20:05:55.704Z,28.17
2017-07-02T20:08:24.464Z,27.83
2017-07-02T20:10:53.115Z,30.57
2017-07-02T20:13:22.719Z,30.80
2017-07-02T20:15:52.555Z,29.73
2017-07-02T20:18:21.507Z,35.33
2017-07-02T20:20:50.060Z,38.70
2017-07-02T20:23:18.839Z,39.80
2017-07-02T20:25:47.403Z,40.30
2017-07-02T20:28:16.295Z,40.93
2017-07-02T20:30:44.516Z,39.83
2017-07-02T20:33:13.243Z,37.97
2017-07-02T20:35:42.548Z,36.43
2017-07-02T20:38:12.376Z,32.97
2017-07-02T20:40:40.508Z,35.67
2017-07-02T20:43:09.239Z,33.00
2017-07-02T20:45:38.232Z,33.20
2017-07-02T20:48:06.982Z,32.73
2017-07-02T20:50:35.491Z,32.93
2017-07-02T20:53:05.320Z,29.07
2017-07-02T20:55:34.171Z,29.60
2017-07-02T20:58:02.916Z,30.17
2017-07-02T21:00:31.175Z,31.43
2017-07-02T21:02:59.342Z,35.43
2017-07-02T21:05:27.914Z,37.67
2017-07-02T21:07:57.464Z,40.80
2017-07-02T21:10:25.556Z,43.47
2017-07-02T21:12:54.303Z,39.60
2017-07-02T21:15:22.583Z,42.97
2017-07-02T21:17:51.186Z,41.37
2017-07-02T21:20:19.839Z,40.00
2017-07-02T21:22:49.426Z,44.47
2017-07-02T21:25:18.031Z,42.37
2017-07-02T21:27:47.335Z,45.23
2017-07-02T21:30:17.075Z,50.53
2017-07-02T21:32:45.681Z,54.90
2017-07-02T21:35:13.935Z,56.33
2017-07-02T21:37:42.800Z,53.63
2017-07-02T21:40:12.208Z,55.03
2017-07-02T21:42:41.503Z,53.37
2017-07-02T21:45:11.196Z,53.57
2017-07-02T21:47:39.759Z,56.13
2017-07-02T21:50:08.279Z,57.33
2017-07-02T21:52:36.499Z,57.33
2017-07-02T21:55:05.085Z,53.70
2017-07-02T21:57:33.831Z,54.27
2017-07-02T22:00:03.418Z,52.97
2017-07-02T22:02:32.027Z,51.97
2017-07-02T22:05:01.426Z,54.87
2017-07-02T22:07:31.120Z,53.30
2017-07-02T22:09:59.623Z,53.27
2017-07-02T22:12:29.163Z,55.50
2017-07-02T22:14:57.829Z,59.27
2017-07-02T22:17:26.404Z,59.70
2017-07-02T22:19:55.859Z,56.20
2017-07-02T22:22:24.155Z,56.33
2017-07-02T22:24:52.850Z,57.27
2017-07-02T22:27:21.420Z,58.27
2017-07-02T22:29:50.184Z,58.73
2017-07-02T22:32:18.836Z,62.03
2017-07-02T22:34:48.180Z,62.60
2017-07-02T22:37:16.443Z,69.47
2017-07-02T22:39:45.339Z,72.80
2017-07-02T22:42:14.232Z,73.17
2017-07-02T22:44:42.895Z,73.37
2017-07-02T22:47:12.471Z,83.10
2017-07-02T22:49:41.233Z,80.57
2017-07-02T22:52:09.881Z,80.17
2017-07-02T22:54:39.456Z,83.10
2017-07-02T22:57:07.854Z,84.60
2017-07-02T22:59:36.267Z,86.10
2017-07-02T23:02:04.447Z,81.80
2017-07-02T23:04:33.107Z,79.23
2017-07-02T23:07:01.439Z,83.47
2017-07-02T23:09:30.221Z,86.30
2017-07-02T23:11:58.852Z,89.67
2017-07-02T23:14:28.440Z,88.03
2017-07-02T23:16:56.567Z,88.00
2017-07-02T23:19:25.265Z,92.40
2017-07-02T23:21:54.131Z,88.97
2017-07-02T23:37:21.407Z,83.87
2017-07-02T23:39:49.558Z,80.87
2017-07-02T23:42:18.023Z,80.20
2017-07-02T23:44:47.608Z,77.00
2017-07-02T23:47:16.108Z,79.23
2017-07-02T23:49:44.267Z,74.10
2017-07-02T23:52:13.260Z,72.10
2017-07-02T23:54:42.207Z,72.00
2017-07-02T23:57:10.715Z,75.37
2017-07-02T23:59:39.566Z,79.23
